默认 日期 大小 文件数 浏览量 最新下载 xml
part 1磁力链接相关资源由用户搜索指令自动获取,结果来源于网络,本站不存储任何资料,亦不承担任何责任,请于24小时内删除,搜索到43447个磁力,显示前4000条数据,用时77ms。
    {"Vikings.s05e01.WEBDL.720p.NewStudio.TV.mkv": 1573135571, "Vikings.s05e02.WEBDL.720p.NewStudio.TV.mkv": 1578582272, "Vikings.s05e03.WEBDL.720p.NewStudio.TV.mkv": 1589103089, "Vikings.s05e04.WEBDL.720p.NewStudio.TV.mkv": 1605531427, "Vikings.s05e05.WEBDL. ...
创建时间: 2018-10-31 11:11:28 大小:14.85 GB 文件数量:10 热度:14 最近下载:2023-04-01 07:40:01
    {"Sample": {"sample-extreme.makeover.home.edition.s09e10.pdtv.xvid-fqm.avi": 7573304}, "www.Torrentday.com.txt": 472, "First Read This Guide.txt": 472, "extreme.makeover.home.edition.s09e10.pdtv.xvid-fqm.avi": 367284462, "extreme.makeover.home.edition. ...
创建时间: 2018-10-31 11:14:04 大小:357.5 MB 文件数量:5 热度:22 最近下载:2025-10-14 13:20:02
    ... -19 Ariel, Katya Clover - Crazy. Part 1.jpg": 196412}
创建时间: 2018-10-31 11:26:08 大小:77.8 MB 文件数量:72 热度:101 最近下载:2025-10-11 01:13:02
    {"RARBG.com.txt": 34, "atkgfs.15.03.20.marley.brinx.episode.318.part.1.4k.mp4": 1338965987, "atkgfs.15.03.20.marley.brinx.episode.318.part.1.4k.nfo": 6997}
创建时间: 2018-10-31 11:28:33 大小:1.25 GB 文件数量:3 热度:135 最近下载:2025-09-02 20:56:05
    ... , "Inside.jpg": 678476, "Booklet 1.jpg": 1358794, "Booklet 2.jpg ... , "Inside.jpg": 506841, "Booklet 1.jpg": 1041124, "Booklet 2.jpg ... "Inside.jpg": 587670, "Booklet 1.jpg": 1147664, "Booklet 2.jpg ... , "Inside.jpg": 1349221, "Booklet 1.jpg": 2922951, "Booklet 2.jpg ...
创建时间: 2018-10-31 11:28:35 大小:2.88 GB 文件数量:122 热度:10 最近下载:2025-03-19 23:49:02
    {"Dr.Phil.Show.2011.01.20.Ted.Williams.The.Update.Part.1.HDTV.Xvid-GRamos.avi": 367036416, "Dr.Phil.Show.2011.01.20.Ted.Williams.The.Update.Part.1.HDTV.Xvid-GRamos.nfo": 1002}
创建时间: 2018-10-31 11:49:09 大小:350.03 MB 文件数量:2 热度:17 最近下载:2025-10-04 05:26:03
    {"Rio (2011).mp4": 2085085658, "Rio 2 (2014) 720p Blu-Ray x264 [Dual-Audio] [English BD 5.1 + Hindi BD 5.1] (1).mkv": 1075835238}
创建时间: 2018-10-31 12:06:39 大小:2.94 GB 文件数量:2 热度:19 最近下载:2025-10-13 19:47:01
    {"Sample": {"ign-dkreturns-sample.avi": 12316672}, "ign-dkreturns-xvid.nfo": 6662, "dark.knight.returns.pt1.dvdrip.xvid-ignition.avi": 734734614}
创建时间: 2018-10-31 12:10:31 大小:712.45 MB 文件数量:3 热度:16 最近下载:2025-06-28 12:25:02
    {"WWRG read Me.txt": 563, "Coronation Street 1st Aug 2018 part 1 1080p (Deep61) [WWRG].mp4": 1016651686}
创建时间: 2018-10-31 12:15:15 大小:969.56 MB 文件数量:2 热度:17 最近下载:2025-01-11 19:27:02
    ... - Insatiable (part 1,2)": {"CG 27 Part 1 - 01.jpg": 665635, "CG 27 Part 1 - 02 ... .jpg": 718530, "CG 27 Part 1 ... - 03.jpg": 692362, "CG 27 Part 1 ...
创建时间: 2018-10-31 12:15:49 大小:2.39 GB 文件数量:2854 热度:46 最近下载:2025-09-12 04:28:01
    {"archer.2009.s03e12.hdtv.xvid-fqm.avi": 183739636, "Torrent Downloaded From ExtraTorrent.com.txt": 353}
创建时间: 2018-10-31 12:20:39 大小:175.23 MB 文件数量:2 热度:14 最近下载:2025-01-16 04:23:02
    {"Covers": {"blin 1.jpg": 2146021, "cover avi eng. ...
创建时间: 2018-10-31 12:23:11 大小:4.15 GB 文件数量:52 热度:17 最近下载:2025-02-14 07:46:02
    ... - (The History of UFO's Part 1) - Billy Crone.mp4": 351052269, "10 ... - (The History of UFO's Part 2) - Billy Crone.mp4": 395566452 ... - (The History of UFO's Part 3) - Billy Crone.mp4": 377395987 ... - (UFO's Teach Like Demons Part 2) - Billy Crone.mp4": 384003122 ...
创建时间: 2018-10-31 12:24:15 大小:6.67 GB 文件数量:26 热度:18 最近下载:2025-10-14 08:51:04
    ... .S03E09.Mind.and.Body.Healing.Part.1.WEB.x264-CAFFEiNE.mkv": 196814732 ... .s03e09.mind.and.body.healing.part.1.web.x264-caffeine.nfo": 443 ...
创建时间: 2018-10-31 12:25:01 大小:189.77 MB 文件数量:7 热度:15 最近下载:2025-01-20 10:45:06
    ... ": 11563, "Kjell samtalen - part 1.mp3": 115064058, "Kjell samtalen - part 2.mp3": 86066627 ... , "Kjell samtalen - part 3.mp3": 84672728 ... , "Kjell samtalen - part 4.mp3": 105795010 ...
创建时间: 2018-10-31 12:25:42 大小:465.43 MB 文件数量:8 热度:13 最近下载:2025-02-24 06:26:02
    {"s4f-ymifmtladp1-hr.nfo": 229, "s4f-ymifmtladp1-hr.wmv": 177629635}
创建时间: 2018-10-31 12:36:22 大小:169.4 MB 文件数量:2 热度:31 最近下载:2025-09-17 13:21:10
    {"sperma.17.12.25.julie.skyhigh.special.part.1[N1C].mp4": 3843456953}
创建时间: 2018-10-31 12:38:17 大小:3.58 GB 文件数量:1 热度:91 最近下载:2025-08-03 22:16:03
    {"Cover.jpg": 55384, "01. 목소리.mp3": 8254106, "02. 목소리 (Inst.).mp3": 8254122}
创建时间: 2018-10-31 12:43:04 大小:15.8 MB 文件数量:3 热度:20 最近下载:2025-08-08 22:57:02
    ... - Dead or Alive.avi": 157872942, "1 - Man from Space.avi": 157768800 ...
创建时间: 2018-10-31 12:44:13 大小:2.94 GB 文件数量:21 热度:22 最近下载:2025-05-13 02:47:02
    ... 드라마 ) OST] Part.2.mp3": 9541734, " ... 드라마 ) OST] Part.5.mp3": 10150377, "3 ... 드라마 ) OST] Part.3.mp3": 10544942, "9 ... 드라마 ) OST] Part.9.mp3": 10003709, "7 ... OST] Part.7.mp3": 9124142, "1.그때 그 ... 드라마 ) OST] Part.1.mp3": 11629824, "4. ... 드라마 ) OST] Part.4.mp3": 10781104, "6 ...
创建时间: 2018-10-31 12:56:02 大小:85.32 MB 文件数量:9 热度:17 最近下载:2025-10-04 03:35:02